^^
Datos históricos de la estación: Murcia-Puente Tocinos
Diario Informe para Junio 20, 2019 Unidades:  Métrico    Inglés   Ambas
Diario Semanal Mensual Anual Configurable
  Máximo: Mínimo: Media:
Temperatura: 31.1 °C 21.2 °C 25.2 °C
Punto de rocio: 18.6 °C 9.4 °C 15.4 °C
Humedad: 82% 31% 57%
Velocidad viento: 25.6km/h 0.0km/h 11.9km/h
Racha viento: 40.7km/h - -
Viento- - SE
Presión: 1010.9 hPa 1008.3 hPa -
Precipitación: 0.0 mm    
Historical Graphs
 
 
Tabla de datos para Junio 20, 2019
Hora Temperatura Punto de rocio Presión Viento Velocidad viento Racha viento Humedad Intensidad lluvia(por hora) Nubes
00:04 23.6 °C 18.1 °C 1010.3 hPa ENE 3.9 km/h 9.3 km/h 71% 0.0 mm CLR
00:07 23.5 °C 18.2 °C 1010.3 hPa ENE 3.9 km/h 3.9 km/h 72% 0.0 mm CLR
00:14 23.3 °C 18.2 °C 1010.3 hPa NNE 4.7 km/h 7.4 km/h 73% 0.0 mm CLR
00:19 23.1 °C 18.2 °C 1010.4 hPa NNE 4.7 km/h 5.6 km/h 74% 0.0 mm CLR
00:24 23.0 °C 18.3 °C 1010.4 hPa NNE 4.7 km/h 3.7 km/h 75% 0.0 mm CLR
00:29 22.9 °C 18.4 °C 1010.4 hPa NE 2.9 km/h 7.4 km/h 76% 0.0 mm CLR
00:34 22.8 °C 18.3 °C 1010.4 hPa NE 2.9 km/h 3.7 km/h 76% 0.0 mm CLR
00:39 22.8 °C 18.3 °C 1010.4 hPa NW 2.9 km/h 7.4 km/h 76% 0.0 mm CLR
00:44 22.8 °C 18.3 °C 1010.4 hPa NW 2.9 km/h 7.4 km/h 76% 0.0 mm CLR
00:49 22.8 °C 18.3 °C 1010.5 hPa NW 4.7 km/h 7.4 km/h 76% 0.0 mm CLR
00:54 22.8 °C 18.3 °C 1010.5 hPa NW 4.7 km/h 5.6 km/h 76% 0.0 mm CLR
00:59 22.8 °C 18.3 °C 1010.5 hPa NW 3.2 km/h 7.4 km/h 76% 0.0 mm CLR
01:04 22.8 °C 18.3 °C 1010.6 hPa NW 3.2 km/h 3.7 km/h 76% 0.0 mm CLR
01:09 22.8 °C 18.3 °C 1010.6 hPa NNW 2.3 km/h 5.0 km/h 76% 0.0 mm CLR
01:14 22.8 °C 18.3 °C 1010.6 hPa NW 2.3 km/h 3.7 km/h 76% 0.0 mm CLR
01:19 22.8 °C 18.3 °C 1010.6 hPa NW 3.2 km/h 7.4 km/h 76% 0.0 mm CLR
01:24 22.8 °C 18.6 °C 1010.6 hPa NW 3.2 km/h 5.6 km/h 77% 0.0 mm CLR
01:29 22.7 °C 18.2 °C 1010.6 hPa NW 2.9 km/h   76% 0.0 mm CLR
01:34 22.6 °C 17.9 °C 1010.6 hPa NW 2.9 km/h 6.9 km/h 75% 0.0 mm CLR
01:39 22.6 °C 18.2 °C 1010.6 hPa NW 2.9 km/h 5.6 km/h 76% 0.0 mm CLR
01:44 22.6 °C 18.4 °C 1010.6 hPa NNW 2.9 km/h 5.6 km/h 77% 0.0 mm CLR
01:49 22.5 °C 18.4 °C 1010.6 hPa NNW 3.2 km/h 5.6 km/h 78% 0.0 mm CLR
01:54 22.4 °C 18.4 °C 1010.6 hPa NNW 3.2 km/h 3.7 km/h 78% 0.0 mm CLR
01:59 22.3 °C 17.9 °C 1010.6 hPa NNW 2.9 km/h 3.7 km/h 76% 0.0 mm CLR
02:04 22.2 °C 17.3 °C 1010.5 hPa NNW 2.9 km/h   74% 0.0 mm CLR
02:09 22.1 °C 17.2 °C 1010.5 hPa Calm   3.7 km/h 74% 0.0 mm CLR
02:14 22.2 °C 17.3 °C 1010.5 hPa Calm     74% 0.0 mm CLR
02:19 22.2 °C 17.1 °C 1010.4 hPa Calm     73% 0.0 mm CLR
02:24 22.2 °C 17.1 °C 1010.4 hPa Calm   1.9 km/h 73% 0.0 mm CLR
02:29 22.2 °C 17.1 °C 1010.4 hPa Calm     73% 0.0 mm CLR
02:34 22.2 °C 17.1 °C 1010.3 hPa Calm     73% 0.0 mm CLR
02:39 22.2 °C 17.3 °C 1010.3 hPa Calm   3.7 km/h 74% 0.0 mm CLR
02:44 22.2 °C 17.1 °C 1010.3 hPa Calm   7.4 km/h 73% 0.0 mm CLR
02:49 22.1 °C 16.8 °C 1010.4 hPa WNW 3.9 km/h 7.4 km/h 72% 0.0 mm CLR
02:54 22.0 °C 16.5 °C 1010.4 hPa West 3.9 km/h 7.4 km/h 71% 0.0 mm CLR
02:59 21.9 °C 16.2 °C 1010.4 hPa West 5.0 km/h 7.6 km/h 70% 0.0 mm CLR
03:04 21.9 °C 16.2 °C 1010.3 hPa WSW 5.0 km/h 7.4 km/h 70% 0.0 mm CLR
03:09 21.9 °C 16.2 °C 1010.3 hPa South 5.0 km/h 6.4 km/h 70% 0.0 mm CLR
03:14 21.9 °C 16.2 °C 1010.3 hPa SSW 5.0 km/h 7.4 km/h 70% 0.0 mm CLR
03:19 22.0 °C 16.3 °C 1010.3 hPa SSE 4.7 km/h 7.4 km/h 70% 0.0 mm CLR
03:24 22.0 °C 16.3 °C 1010.3 hPa SSE 4.7 km/h 7.6 km/h 70% 0.0 mm CLR
03:29 21.9 °C 16.2 °C 1010.3 hPa South 6.4 km/h 7.4 km/h 70% 0.0 mm CLR
03:34 21.9 °C 16.4 °C 1010.0 hPa SSW 6.4 km/h 5.6 km/h 71% 0.0 mm CLR
03:39 21.9 °C 16.4 °C 1010.0 hPa SSE 5.0 km/h 10.0 km/h 71% 0.0 mm CLR
03:44 21.8 °C 16.3 °C 1010.0 hPa South 5.0 km/h 9.5 km/h 71% 0.0 mm CLR
03:49 21.7 °C 16.2 °C 1009.9 hPa South 7.6 km/h 11.1 km/h 71% 0.0 mm CLR
03:54 21.5 °C 16.0 °C 1009.9 hPa SSW 7.6 km/h 9.5 km/h 71% 0.0 mm CLR
03:59 21.4 °C 15.9 °C 1009.9 hPa SSW 7.6 km/h 9.3 km/h 71% 0.0 mm CLR
04:04 21.4 °C 15.9 °C 1009.7 hPa SSE 7.6 km/h 9.3 km/h 71% 0.0 mm CLR
04:09 21.4 °C 15.7 °C 1009.7 hPa SSW 6.9 km/h 9.5 km/h 70% 0.0 mm CLR
04:14 21.6 °C 15.7 °C 1009.7 hPa SSW 6.9 km/h 11.1 km/h 69% 0.0 mm CLR
04:19 21.7 °C 15.8 °C 1009.6 hPa WSW 7.6 km/h 9.3 km/h 69% 0.0 mm CLR
04:24 21.8 °C 15.8 °C 1009.6 hPa SW 7.6 km/h 11.1 km/h 69% 0.0 mm CLR
04:29 21.8 °C 15.8 °C 1009.6 hPa SSW 6.9 km/h 11.1 km/h 69% 0.0 mm CLR
04:34 21.7 °C 15.8 °C 1009.5 hPa SSW 6.9 km/h 13.0 km/h 69% 0.0 mm CLR
04:39 21.7 °C 16.0 °C 1009.5 hPa SSW 8.4 km/h 14.8 km/h 70% 0.0 mm CLR
04:44 21.8 °C 15.8 °C 1009.5 hPa SW 8.4 km/h 14.8 km/h 69% 0.0 mm CLR
04:49 21.8 °C 15.8 °C 1009.4 hPa SW 10.0 km/h 11.1 km/h 69% 0.0 mm CLR
04:54 21.8 °C 15.8 °C 1009.4 hPa SSW 10.0 km/h 11.1 km/h 69% 0.0 mm CLR
04:59 21.8 °C 15.6 °C 1009.4 hPa SSW 8.7 km/h 11.1 km/h 68% 0.0 mm CLR
05:04 21.8 °C 15.4 °C 1009.3 hPa WSW 8.7 km/h 10.0 km/h 67% 0.0 mm CLR
05:09 21.9 °C 15.0 °C 1009.3 hPa WSW 6.9 km/h 14.8 km/h 65% 0.0 mm CLR
05:14 22.0 °C 14.4 °C 1009.3 hPa SW 6.9 km/h 9.5 km/h 62% 0.0 mm CLR
05:19 22.1 °C 14.5 °C 1009.3 hPa SW 7.6 km/h 9.3 km/h 62% 0.0 mm CLR
05:24 22.1 °C 14.2 °C 1009.3 hPa SW 7.6 km/h 7.6 km/h 61% 0.0 mm CLR
05:29 22.1 °C 14.2 °C 1009.3 hPa SW 5.8 km/h 9.3 km/h 61% 0.0 mm CLR
05:34 22.2 °C 14.3 °C 1009.1 hPa West 5.8 km/h 9.3 km/h 61% 0.0 mm CLR
05:39 22.2 °C 14.3 °C 1009.1 hPa WSW 5.8 km/h 7.4 km/h 61% 0.0 mm CLR
05:44 22.2 °C 14.6 °C 1009.1 hPa SSW 5.8 km/h 7.4 km/h 62% 0.0 mm CLR
05:49 22.2 °C 14.8 °C 1009.2 hPa WSW 4.7 km/h 8.7 km/h 63% 0.0 mm CLR
05:54 22.1 °C 14.7 °C 1009.2 hPa SW 4.7 km/h 9.3 km/h 63% 0.0 mm CLR
05:59 22.1 °C 14.7 °C 1009.2 hPa SW 5.8 km/h 7.4 km/h 63% 0.0 mm CLR
06:04 22.1 °C 14.7 °C 1009.3 hPa SSW 5.8 km/h 7.4 km/h 63% 0.0 mm CLR
06:09 22.0 °C 14.4 °C 1009.3 hPa SSW 5.0 km/h 9.3 km/h 62% 0.0 mm CLR
06:14 22.0 °C 13.9 °C 1009.3 hPa SW 5.0 km/h 10.3 km/h 60% 0.0 mm CLR
06:19 22.0 °C 13.6 °C 1009.4 hPa SSW 6.9 km/h 13.0 km/h 59% 0.0 mm CLR
06:24 22.0 °C 13.6 °C 1009.4 hPa SSW 6.9 km/h 5.6 km/h 59% 0.0 mm CLR
06:29 22.1 °C 13.4 °C 1009.4 hPa SSW 5.8 km/h 9.3 km/h 58% 0.0 mm CLR
06:34 22.1 °C 13.4 °C 1009.4 hPa SSW 5.8 km/h 9.3 km/h 58% 0.0 mm CLR
06:39 22.2 °C 13.3 °C 1009.4 hPa SW 5.0 km/h 7.4 km/h 57% 0.0 mm CLR
06:44 22.3 °C 12.3 °C 1009.4 hPa South 5.0 km/h 7.4 km/h 53% 0.0 mm CLR
06:49 22.6 °C 11.7 °C 1009.5 hPa SW 5.8 km/h 9.3 km/h 50% 0.0 mm CLR
06:54 22.8 °C 11.2 °C 1009.5 hPa SW 5.8 km/h 7.4 km/h 48% 0.0 mm CLR
06:59 23.1 °C 10.8 °C 1009.5 hPa SSW 5.8 km/h 10.0 km/h 46% 0.0 mm CLR
07:04 23.3 °C 10.7 °C 1009.5 hPa SSW 5.8 km/h 11.1 km/h 45% 0.0 mm CLR
07:09 23.4 °C 10.4 °C 1009.5 hPa SSW 7.6 km/h 9.3 km/h 44% 0.0 mm CLR
07:14 23.4 °C 10.4 °C 1009.5 hPa South 7.6 km/h 14.8 km/h 44% 0.0 mm CLR
07:19 23.6 °C 10.3 °C 1009.7 hPa SW 8.7 km/h 9.3 km/h 43% 0.0 mm CLR
07:24 23.8 °C 10.1 °C 1009.7 hPa WSW 8.7 km/h 11.1 km/h 42% 0.0 mm CLR
07:29 23.9 °C 10.2 °C 1009.7 hPa SSW 8.4 km/h 11.1 km/h 42% 0.0 mm CLR
07:34 24.0 °C 10.3 °C 1009.8 hPa South 8.4 km/h 13.0 km/h 42% 0.0 mm CLR
07:39 24.1 °C 10.0 °C 1009.8 hPa SSW 8.7 km/h 13.0 km/h 41% 0.0 mm CLR
07:44 24.2 °C 10.1 °C 1009.8 hPa South 8.7 km/h 14.8 km/h 41% 0.0 mm CLR
07:49 24.3 °C 9.8 °C 1009.8 hPa SW 8.7 km/h 11.1 km/h 40% 0.0 mm CLR
07:54 24.4 °C 9.9 °C 1009.8 hPa SSW 8.7 km/h 11.1 km/h 40% 0.0 mm CLR
07:59 24.6 °C 9.7 °C 1009.8 hPa SW 8.4 km/h 16.7 km/h 39% 0.0 mm CLR
08:04 24.7 °C 9.8 °C 1009.8 hPa SSW 8.4 km/h 13.0 km/h 39% 0.0 mm CLR
08:09 24.7 °C 9.8 °C 1009.8 hPa SSW 8.7 km/h 13.0 km/h 39% 0.0 mm CLR
08:14 24.7 °C 9.4 °C 1009.8 hPa SSW 8.7 km/h 13.0 km/h 38% 0.0 mm CLR
08:19 24.8 °C 9.5 °C 1009.8 hPa SSW 8.4 km/h 14.8 km/h 38% 0.0 mm CLR
08:24 24.9 °C 9.6 °C 1009.8 hPa SW 8.4 km/h 13.0 km/h 38% 0.0 mm CLR
08:29 25.1 °C 9.8 °C 1009.8 hPa SSW 8.7 km/h 11.1 km/h 38% 0.0 mm CLR
08:34 25.3 °C 9.6 °C 1009.9 hPa SW 8.7 km/h 13.0 km/h 37% 0.0 mm CLR
08:39 25.4 °C 9.7 °C 1009.9 hPa South 8.4 km/h 13.0 km/h 37% 0.0 mm CLR
08:44 25.7 °C 9.9 °C 1009.9 hPa SW 8.4 km/h 11.1 km/h 37% 0.0 mm CLR
08:49 25.8 °C 9.6 °C 1009.8 hPa SSW 8.4 km/h 9.3 km/h 36% 0.0 mm CLR
08:54 26.1 °C 9.8 °C 1009.8 hPa SSW 8.4 km/h 11.1 km/h 36% 0.0 mm CLR
08:59 26.2 °C 9.9 °C 1009.8 hPa SSW 8.4 km/h 11.1 km/h 36% 0.0 mm CLR
09:04 26.3 °C 10.1 °C 1009.9 hPa SW 8.4 km/h 9.3 km/h 36% 0.0 mm CLR
09:09 26.5 °C 10.2 °C 1009.9 hPa WSW 7.6 km/h 11.9 km/h 36% 0.0 mm CLR
09:14 26.6 °C 10.3 °C 1009.9 hPa SSW 7.6 km/h 13.0 km/h 36% 0.0 mm CLR
09:19 26.7 °C 10.4 °C 1009.9 hPa SW 7.6 km/h 13.0 km/h 36% 0.0 mm CLR
09:24 26.9 °C 10.2 °C 1009.9 hPa SSW 7.6 km/h 16.1 km/h 35% 0.0 mm CLR
09:29 27.0 °C 10.7 °C 1009.9 hPa SSW 8.7 km/h 9.3 km/h 36% 0.0 mm CLR
09:34 27.1 °C 10.3 °C 1009.9 hPa WSW 8.7 km/h 14.8 km/h 35% 0.0 mm CLR
09:39 27.3 °C 10.9 °C 1009.9 hPa SW 6.9 km/h 11.9 km/h 36% 0.0 mm CLR
09:44 27.3 °C 10.5 °C 1009.9 hPa WSW 6.9 km/h 11.1 km/h 35% 0.0 mm CLR
09:49 27.6 °C 10.8 °C 1009.8 hPa SW 6.4 km/h 13.0 km/h 35% 0.0 mm CLR
09:54 27.6 °C 10.8 °C 1009.8 hPa WSW 6.4 km/h 14.8 km/h 35% 0.0 mm CLR
09:59 27.7 °C 10.8 °C 1009.8 hPa NW 8.4 km/h 13.0 km/h 35% 0.0 mm CLR
10:04 27.9 °C 11.0 °C 1009.9 hPa SW 8.4 km/h 13.0 km/h 35% 0.0 mm CLR
10:09 27.9 °C 11.0 °C 1009.9 hPa NW 10.0 km/h 14.8 km/h 35% 0.0 mm CLR
10:14 27.8 °C 10.9 °C 1009.9 hPa West 10.0 km/h 18.5 km/h 35% 0.0 mm CLR
10:19 27.9 °C 11.0 °C 1009.8 hPa WSW 11.9 km/h 18.5 km/h 35% 0.0 mm CLR
10:24 28.1 °C 11.2 °C 1009.8 hPa West 11.9 km/h 16.7 km/h 35% 0.0 mm CLR
10:29 28.2 °C 11.3 °C 1009.8 hPa West 8.7 km/h 11.1 km/h 35% 0.0 mm CLR
10:34 28.4 °C 11.0 °C 1009.7 hPa WSW 8.7 km/h 14.8 km/h 34% 0.0 mm CLR
10:39 28.4 °C 11.0 °C 1009.7 hPa WSW 8.7 km/h 11.1 km/h 34% 0.0 mm CLR
10:44 28.6 °C 11.2 °C 1009.7 hPa WSW 8.7 km/h 9.3 km/h 34% 0.0 mm CLR
10:49 28.6 °C 11.2 °C 1009.7 hPa NW 8.4 km/h 5.6 km/h 34% 0.0 mm CLR
10:54 28.9 °C 11.4 °C 1009.7 hPa West 8.4 km/h 16.7 km/h 34% 0.0 mm CLR
10:59 28.9 °C 11.4 °C 1009.7 hPa West 6.4 km/h 13.0 km/h 34% 0.0 mm CLR
11:04 29.0 °C 11.6 °C 1009.8 hPa WSW 6.4 km/h 7.4 km/h 34% 0.0 mm CLR
11:09 29.3 °C 11.8 °C 1009.8 hPa SSW 5.8 km/h 5.6 km/h 34% 0.0 mm CLR
11:14 29.6 °C 11.6 °C 1009.8 hPa WSW 5.8 km/h 11.1 km/h 33% 0.0 mm CLR
11:19 29.8 °C 11.8 °C 1009.8 hPa SE 5.0 km/h 5.6 km/h 33% 0.0 mm CLR
11:24 30.1 °C 11.6 °C 1009.8 hPa NW 5.0 km/h 10.0 km/h 32% 0.0 mm CLR
11:29 30.2 °C 11.7 °C 1009.8 hPa NNE 5.8 km/h 11.1 km/h 32% 0.0 mm CLR
11:34 30.2 °C 11.7 °C 1009.8 hPa NE 5.8 km/h 7.4 km/h 32% 0.0 mm CLR
11:39 30.3 °C 11.8 °C 1009.8 hPa NNE 6.9 km/h 11.1 km/h 32% 0.0 mm CLR
11:44 30.5 °C 11.4 °C 1009.8 hPa NNW 6.9 km/h 9.3 km/h 31% 0.0 mm CLR
11:49 30.6 °C 11.6 °C 1009.8 hPa NNE 6.4 km/h 7.4 km/h 31% 0.0 mm CLR
11:54 30.6 °C 11.6 °C 1009.8 hPa South 6.4 km/h 9.3 km/h 31% 0.0 mm CLR
11:59 30.7 °C 12.1 °C 1009.8 hPa NNE 5.0 km/h 9.3 km/h 32% 0.0 mm CLR
12:04 30.9 °C 12.8 °C 1009.7 hPa NE 5.0 km/h 13.0 km/h 33% 0.0 mm CLR
12:09 31.0 °C 12.8 °C 1009.7 hPa NE 5.8 km/h 7.6 km/h 33% 0.0 mm CLR
12:14 31.1 °C 12.4 °C 1009.7 hPa NE 5.8 km/h 14.8 km/h 32% 0.0 mm CLR
12:19 30.9 °C 12.8 °C 1009.8 hPa ENE 7.6 km/h 16.7 km/h 33% 0.0 mm CLR
12:24 30.8 °C 12.7 °C 1009.8 hPa NNE 7.6 km/h 11.1 km/h 33% 0.0 mm CLR
12:29 30.8 °C 12.7 °C 1009.8 hPa NNE 8.7 km/h 13.0 km/h 33% 0.0 mm CLR
12:34 30.8 °C 12.7 °C 1009.7 hPa NE 8.7 km/h 20.4 km/h 33% 0.0 mm CLR
12:39 30.7 °C 13.5 °C 1009.7 hPa ENE 11.1 km/h 16.7 km/h 35% 0.0 mm CLR
12:44 30.7 °C 13.9 °C 1009.7 hPa East 11.1 km/h 22.2 km/h 36% 0.0 mm CLR
12:49 30.7 °C 13.5 °C 1009.8 hPa NNE 11.9 km/h 24.5 km/h 35% 0.0 mm CLR
12:54 30.7 °C 14.3 °C 1009.8 hPa ENE 11.9 km/h 20.4 km/h 37% 0.0 mm CLR
12:59 30.4 °C 14.9 °C 1009.8 hPa NE 14.8 km/h 16.7 km/h 39% 0.0 mm CLR
13:04 30.4 °C 14.9 °C 1009.8 hPa ENE 14.8 km/h 31.5 km/h 39% 0.0 mm CLR
13:09 30.1 °C 15.0 °C 1009.8 hPa NNE 15.6 km/h 24.1 km/h 40% 0.0 mm CLR
13:14 29.9 °C 14.8 °C 1009.8 hPa NE 15.6 km/h 27.8 km/h 40% 0.0 mm CLR
13:19 29.7 °C 15.4 °C 1009.8 hPa NE 18.3 km/h 33.3 km/h 42% 0.0 mm CLR
13:24 29.6 °C 15.3 °C 1009.8 hPa NE 18.3 km/h 28.6 km/h 42% 0.0 mm CLR
13:29 29.6 °C 15.7 °C 1009.8 hPa ENE 20.1 km/h 22.2 km/h 43% 0.0 mm CLR
13:34 29.1 °C 15.6 °C 1009.8 hPa NE 20.1 km/h 31.5 km/h 44% 0.0 mm CLR
13:39 28.9 °C 15.4 °C 1009.8 hPa NE 20.9 km/h 29.6 km/h 44% 0.0 mm CLR
13:44 28.7 °C 15.6 °C 1009.8 hPa NNE 20.9 km/h 35.2 km/h 45% 0.0 mm CLR
13:49 28.7 °C 15.6 °C 1009.8 hPa ENE 20.1 km/h 24.1 km/h 45% 0.0 mm CLR
13:54 28.6 °C 15.8 °C 1009.8 hPa NE 20.1 km/h 33.3 km/h 46% 0.0 mm CLR
13:59 28.7 °C 15.9 °C 1009.8 hPa North 19.0 km/h 22.2 km/h 46% 0.0 mm CLR
14:04 28.6 °C 15.8 °C 1009.8 hPa NE 19.0 km/h 37.0 km/h 46% 0.0 mm CLR
14:09 28.4 °C 15.7 °C 1009.8 hPa NE 20.1 km/h 31.5 km/h 46% 0.0 mm CLR
14:14 28.2 °C 15.5 °C 1009.8 hPa NE 20.1 km/h 25.9 km/h 46% 0.0 mm CLR
14:19 28.4 °C 15.3 °C 1009.8 hPa ENE 20.9 km/h 27.0 km/h 45% 0.0 mm CLR
14:24 28.1 °C 15.4 °C 1009.8 hPa NE 20.9 km/h 32.8 km/h 46% 0.0 mm CLR
14:29 28.1 °C 15.7 °C 1009.8 hPa NNE 22.0 km/h 35.2 km/h 47% 0.0 mm CLR
14:34 28.1 °C 15.7 °C 1009.7 hPa NNE 22.0 km/h 29.6 km/h 47% 0.0 mm CLR
14:39 27.9 °C 16.2 °C 1009.7 hPa North 22.0 km/h 31.5 km/h 49% 0.0 mm CLR
14:44 27.9 °C 16.5 °C 1009.7 hPa NNW 22.0 km/h 37.0 km/h 50% 0.0 mm CLR
14:49 27.6 °C 16.6 °C 1009.8 hPa NE 23.7 km/h 29.6 km/h 51% 0.0 mm CLR
14:54 27.7 °C 16.7 °C 1009.8 hPa NE 23.7 km/h 37.0 km/h 51% 0.0 mm CLR
14:59 27.7 °C 16.9 °C 1009.8 hPa ENE 22.0 km/h 40.7 km/h 52% 0.0 mm CLR
15:04 27.3 °C 16.9 °C 1009.6 hPa NE 22.0 km/h 31.5 km/h 53% 0.0 mm CLR
15:09 27.2 °C 17.1 °C 1009.6 hPa NE 25.6 km/h 33.3 km/h 54% 0.0 mm CLR
15:14 27.3 °C 17.2 °C 1009.6 hPa NE 25.6 km/h 33.3 km/h 54% 0.0 mm CLR
15:19 27.3 °C 17.2 °C 1009.6 hPa NNE 20.9 km/h 24.1 km/h 54% 0.0 mm CLR
15:24 27.3 °C 17.2 °C 1009.6 hPa ENE 20.9 km/h 35.2 km/h 54% 0.0 mm CLR
15:29 27.1 °C 17.3 °C 1009.6 hPa NE 21.7 km/h 37.0 km/h 55% 0.0 mm CLR
15:34 27.2 °C 17.1 °C 1009.6 hPa ENE 21.7 km/h 25.9 km/h 54% 0.0 mm CLR
15:39 27.1 °C 17.3 °C 1009.6 hPa NE 22.5 km/h 35.2 km/h 55% 0.0 mm CLR
15:44 27.2 °C 17.4 °C 1009.6 hPa NNE 22.5 km/h 23.3 km/h 55% 0.0 mm CLR
15:49 27.4 °C 17.0 °C 1009.4 hPa NNE 19.0 km/h 29.6 km/h 53% 0.0 mm CLR
15:54 27.2 °C 17.4 °C 1009.4 hPa NE 19.0 km/h 33.3 km/h 55% 0.0 mm CLR
15:59 27.3 °C 17.2 °C 1009.4 hPa NE 23.3 km/h 33.3 km/h 54% 0.0 mm CLR
16:04 27.5 °C 16.4 °C 1009.2 hPa ENE 23.3 km/h 28.2 km/h 51% 0.0 mm CLR
16:09 27.4 °C 16.4 °C 1009.2 hPa ENE 20.9 km/h 31.5 km/h 51% 0.0 mm CLR
16:14 27.3 °C 16.6 °C 1009.2 hPa ENE 20.9 km/h 34.3 km/h 52% 0.0 mm CLR
16:19 27.4 °C 16.7 °C 1009.1 hPa NNE 22.5 km/h 33.3 km/h 52% 0.0 mm CLR
16:24 27.4 °C 17.0 °C 1009.1 hPa NE 22.5 km/h 33.3 km/h 53% 0.0 mm CLR
16:29 27.2 °C 16.8 °C 1009.1 hPa East 23.7 km/h 35.2 km/h 53% 0.0 mm CLR
16:34 27.4 °C 17.0 °C 1008.9 hPa NE 23.7 km/h 35.2 km/h 53% 0.0 mm CLR
16:39 27.4 °C 16.7 °C 1008.9 hPa NE 23.3 km/h 38.9 km/h 52% 0.0 mm CLR
16:44 27.4 °C 16.4 °C 1008.9 hPa ENE 23.3 km/h 29.6 km/h 51% 0.0 mm CLR
16:49 27.4 °C 16.7 °C 1008.9 hPa NE 21.7 km/h 28.2 km/h 52% 0.0 mm CLR
16:54 27.4 °C 16.7 °C 1008.9 hPa NE 21.7 km/h 29.6 km/h 52% 0.0 mm CLR
16:59 27.3 °C 16.6 °C 1008.9 hPa NE 22.0 km/h 33.3 km/h 52% 0.0 mm CLR
17:04 27.4 °C 17.0 °C 1008.9 hPa NE 22.0 km/h 29.6 km/h 53% 0.0 mm CLR
17:09 27.3 °C 16.9 °C 1008.9 hPa ENE 20.1 km/h 37.0 km/h 53% 0.0 mm CLR
17:14 27.4 °C 17.0 °C 1008.9 hPa NE 20.1 km/h 33.3 km/h 53% 0.0 mm CLR
17:19 27.2 °C 17.1 °C 1008.8 hPa NE 21.7 km/h 29.6 km/h 54% 0.0 mm CLR
17:24 27.3 °C 17.2 °C 1008.8 hPa NNE 21.7 km/h 29.1 km/h 54% 0.0 mm CLR
17:29 27.3 °C 17.2 °C 1008.8 hPa North 22.0 km/h 33.3 km/h 54% 0.0 mm CLR
17:34 27.2 °C 17.1 °C 1008.9 hPa NE 22.0 km/h 27.8 km/h 54% 0.0 mm CLR
17:39 27.1 °C 17.0 °C 1008.9 hPa ENE 22.5 km/h 29.6 km/h 54% 0.0 mm CLR
17:44 27.0 °C 16.9 °C 1008.9 hPa NE 22.5 km/h 33.3 km/h 54% 0.0 mm CLR
17:49 26.9 °C 16.5 °C 1008.8 hPa NE 22.5 km/h 35.2 km/h 53% 0.0 mm CLR
17:54 27.2 °C 16.8 °C 1008.8 hPa ENE 22.5 km/h 25.9 km/h 53% 0.0 mm CLR
17:59 27.3 °C 16.9 °C 1008.8 hPa NNE 20.9 km/h 22.5 km/h 53% 0.0 mm CLR
18:04 27.3 °C 16.9 °C 1008.6 hPa ENE 20.9 km/h 35.2 km/h 53% 0.0 mm CLR
18:09 27.2 °C 17.1 °C 1008.6 hPa NE 20.1 km/h 31.5 km/h 54% 0.0 mm CLR
18:14 27.2 °C 17.1 °C 1008.6 hPa NE 20.1 km/h 31.5 km/h 54% 0.0 mm CLR
18:19 27.2 °C 17.1 °C 1008.4 hPa ENE 20.1 km/h 27.8 km/h 54% 0.0 mm CLR
18:24 27.3 °C 17.2 °C 1008.4 hPa NNE 20.1 km/h 22.2 km/h 54% 0.0 mm CLR
18:29 27.1 °C 17.3 °C 1008.4 hPa NNE 19.8 km/h 31.5 km/h 55% 0.0 mm CLR
18:34 26.8 °C 17.0 °C 1008.5 hPa NE 19.8 km/h 35.2 km/h 55% 0.0 mm CLR
18:39 26.7 °C 17.2 °C 1008.5 hPa NE 23.3 km/h 27.8 km/h 56% 0.0 mm CLR
18:44 26.7 °C 17.2 °C 1008.5 hPa NE 23.3 km/h 31.5 km/h 56% 0.0 mm CLR
18:49 26.4 °C 17.4 °C 1008.3 hPa ENE 22.0 km/h 27.8 km/h 58% 0.0 mm CLR
18:54 26.6 °C 17.7 °C 1008.3 hPa ENE 22.0 km/h 29.6 km/h 58% 0.0 mm CLR
18:59 26.6 °C 17.7 °C 1008.3 hPa NE 18.3 km/h 32.3 km/h 58% 0.0 mm CLR
19:04 26.4 °C 17.7 °C 1008.6 hPa NE 18.3 km/h 26.2 km/h 59% 0.0 mm CLR
19:09 26.2 °C 17.6 °C 1008.6 hPa NE 22.0 km/h 27.8 km/h 59% 0.0 mm CLR
19:14 26.2 °C 17.6 °C 1008.6 hPa NNE 22.0 km/h 33.3 km/h 59% 0.0 mm CLR
19:19 26.3 °C 17.9 °C 1008.6 hPa NE 20.1 km/h 29.1 km/h 60% 0.0 mm CLR
19:24 26.3 °C 17.7 °C 1008.6 hPa NNE 20.1 km/h 25.9 km/h 59% 0.0 mm CLR
19:29 26.4 °C 17.7 °C 1008.6 hPa NE 18.0 km/h 22.5 km/h 59% 0.0 mm CLR
19:32 26.4 °C 17.7 °C 1008.6 hPa NE 18.0 km/h 27.8 km/h 59% 0.0 mm CLR
19:33 26.3 °C 17.9 °C 1008.6 hPa NE 18.0 km/h 25.9 km/h 60% 0.0 mm CLR
19:36 26.3 °C 17.9 °C 1008.6 hPa NE 18.0 km/h 29.6 km/h 60% 0.0 mm CLR
19:45 26.0 °C 17.6 °C 1008.6 hPa NNE 19.0 km/h 18.5 km/h 60% 0.0 mm CLR
19:51 25.8 °C 17.7 °C 1008.6 hPa NNE 19.8 km/h 20.4 km/h 61% 0.0 mm CLR
19:58 25.8 °C 17.7 °C 1008.6 hPa NE 18.0 km/h 33.3 km/h 61% 0.0 mm CLR
20:04 25.3 °C 17.5 °C 1008.8 hPa NE 18.0 km/h 27.8 km/h 62% 0.0 mm CLR
20:09 25.3 °C 17.5 °C 1008.8 hPa ENE 19.8 km/h 27.8 km/h 62% 0.0 mm CLR
20:14 25.1 °C 17.6 °C 1008.8 hPa NE 19.8 km/h 33.3 km/h 63% 0.0 mm CLR
20:19 25.0 °C 17.7 °C 1008.8 hPa NE 20.1 km/h 27.8 km/h 64% 0.0 mm CLR
20:24 24.9 °C 17.6 °C 1008.8 hPa NE 20.1 km/h 28.6 km/h 64% 0.0 mm CLR
20:29 24.7 °C 17.4 °C 1008.8 hPa NE 19.8 km/h 29.6 km/h 64% 0.0 mm CLR
20:34 24.7 °C 17.7 °C 1009.0 hPa North 19.8 km/h 26.2 km/h 65% 0.0 mm CLR
20:39 24.5 °C 17.7 °C 1009.0 hPa NE 19.0 km/h 24.1 km/h 66% 0.0 mm CLR
20:44 24.3 °C 17.8 °C 1009.0 hPa NE 19.0 km/h 33.3 km/h 67% 0.0 mm CLR
20:49 24.2 °C 17.9 °C 1009.0 hPa NE 18.3 km/h 24.1 km/h 68% 0.0 mm CLR
20:54 24.1 °C 18.1 °C 1009.0 hPa ENE 18.3 km/h 20.4 km/h 69% 0.0 mm CLR
20:59 23.8 °C 17.8 °C 1009.0 hPa ENE 16.1 km/h 27.8 km/h 69% 0.0 mm CLR
21:04 23.6 °C 17.8 °C 1009.2 hPa NE 16.1 km/h 28.6 km/h 70% 0.0 mm CLR
21:09 23.4 °C 17.8 °C 1009.2 hPa ENE 18.3 km/h 25.9 km/h 71% 0.0 mm CLR
21:14 23.3 °C 17.9 °C 1009.2 hPa NE 18.3 km/h 18.5 km/h 72% 0.0 mm CLR
21:19 23.3 °C 17.9 °C 1009.5 hPa NNE 16.1 km/h 13.0 km/h 72% 0.0 mm CLR
21:24 23.3 °C 17.9 °C 1009.5 hPa ENE 16.1 km/h 16.7 km/h 72% 0.0 mm CLR
21:29 23.1 °C 18.0 °C 1009.5 hPa NNE 11.9 km/h 22.2 km/h 73% 0.0 mm CLR
21:34 23.0 °C 17.9 °C 1009.6 hPa NE 11.9 km/h 14.8 km/h 73% 0.0 mm CLR
21:39 22.9 °C 18.0 °C 1009.6 hPa NNE 13.7 km/h 18.5 km/h 74% 0.0 mm CLR
21:44 22.8 °C 17.9 °C 1009.6 hPa NNE 13.7 km/h 20.4 km/h 74% 0.0 mm CLR
21:49 22.8 °C 17.9 °C 1009.7 hPa NE 12.2 km/h 16.7 km/h 74% 0.0 mm CLR
21:54 22.6 °C 17.9 °C 1009.7 hPa East 12.2 km/h 22.2 km/h 75% 0.0 mm CLR
21:59 22.5 °C 18.1 °C 1009.7 hPa NNE 13.7 km/h 22.2 km/h 76% 0.0 mm CLR
22:04 22.4 °C 18.2 °C 1009.8 hPa ENE 13.7 km/h 14.8 km/h 77% 0.0 mm CLR
22:09 22.3 °C 18.1 °C 1009.8 hPa North 13.7 km/h 18.5 km/h 77% 0.0 mm CLR
22:14 22.3 °C 18.1 °C 1009.8 hPa ENE 13.7 km/h 16.1 km/h 77% 0.0 mm CLR
22:19 22.2 °C 18.2 °C 1010.1 hPa ENE 11.9 km/h 16.7 km/h 78% 0.0 mm CLR
22:24 22.2 °C 18.2 °C 1010.1 hPa NNE 11.9 km/h 16.7 km/h 78% 0.0 mm CLR
22:29 22.1 °C 18.3 °C 1010.1 hPa ENE 11.1 km/h 14.8 km/h 79% 0.0 mm CLR
22:34 22.1 °C 18.3 °C 1010.5 hPa NE 11.1 km/h 16.7 km/h 79% 0.0 mm CLR
22:39 21.9 °C 18.1 °C 1010.5 hPa NNE 11.9 km/h 18.5 km/h 79% 0.0 mm CLR
22:44 21.9 °C 18.3 °C 1010.5 hPa ENE 11.9 km/h 16.7 km/h 80% 0.0 mm CLR
22:49 21.8 °C 18.2 °C 1010.5 hPa NE 11.9 km/h 15.6 km/h 80% 0.0 mm CLR
22:54 21.8 °C 18.2 °C 1010.5 hPa NE 11.9 km/h 10.0 km/h 80% 0.0 mm CLR
22:59 21.7 °C 18.1 °C 1010.5 hPa ENE 10.0 km/h 13.0 km/h 80% 0.0 mm CLR
23:04 21.7 °C 18.1 °C 1010.5 hPa ENE 10.0 km/h 14.8 km/h 80% 0.0 mm CLR
23:09 21.6 °C 18.0 °C 1010.5 hPa ENE 8.7 km/h 10.3 km/h 80% 0.0 mm CLR
23:14 21.6 °C 18.2 °C 1010.5 hPa NE 8.7 km/h 13.0 km/h 81% 0.0 mm CLR
23:19 21.5 °C 18.1 °C 1010.7 hPa NE 8.7 km/h 13.7 km/h 81% 0.0 mm CLR
23:24 21.4 °C 18.0 °C 1010.7 hPa NE 8.7 km/h 15.6 km/h 81% 0.0 mm CLR
23:29 21.4 °C 18.0 °C 1010.7 hPa East 10.0 km/h 16.7 km/h 81% 0.0 mm CLR
23:34 21.3 °C 17.9 °C 1010.7 hPa NNE 10.0 km/h 14.8 km/h 81% 0.0 mm CLR
23:39 21.3 °C 18.1 °C 1010.7 hPa NE 11.9 km/h 14.8 km/h 82% 0.0 mm CLR
23:44 21.3 °C 18.1 °C 1010.7 hPa NE 11.9 km/h 14.8 km/h 82% 0.0 mm CLR
23:49 21.2 °C 18.0 °C 1010.9 hPa ENE 11.1 km/h 14.8 km/h 82% 0.0 mm CLR
23:54 21.2 °C 18.0 °C 1010.9 hPa NE 11.1 km/h 14.8 km/h 82% 0.0 mm CLR
23:59 21.2 °C 18.0 °C 1010.9 hPa NE 11.1 km/h 16.7 km/h 82% 0.0 mm CLR
Murcia-Puente Tocinos, España
Compliments of Weather Underground - 2.75 mb

La estación de MeteoMurcia.com, publica sus datos en los siguientes proyectos:

Weather Underground PWS IMURCIAP2 Meteoclimatic www.awekas.at

W3Counter
Web Analytics